sensor_id;sensor_type;location;lat;lon;timestamp;temperature;humidity
35633;DHT22;21754;48.216;-1.628;2022-12-18T00:00:28;1.60;99.90
35633;DHT22;21754;48.216;-1.628;2022-12-18T00:02:55;1.90;99.90
35633;DHT22;21754;48.216;-1.628;2022-12-18T00:05:21;1.60;99.90
35633;DHT22;21754;48.216;-1.628;2022-12-18T00:07:47;1.90;99.90
35633;DHT22;21754;48.216;-1.628;2022-12-18T00:10:12;1.80;99.90
35633;DHT22;21754;48.216;-1.628;2022-12-18T00:12:38;1.60;99.90
35633;DHT22;21754;48.216;-1.628;2022-12-18T00:15:04;1.60;99.90
35633;DHT22;21754;48.216;-1.628;2022-12-18T00:17:29;1.50;99.90
35633;DHT22;21754;48.216;-1.628;2022-12-18T00:19:55;1.50;99.90
35633;DHT22;21754;48.216;-1.628;2022-12-18T00:22:21;1.40;99.90
35633;DHT22;21754;48.216;-1.628;2022-12-18T00:24:46;1.20;99.90
35633;DHT22;21754;48.216;-1.628;2022-12-18T00:27:13;1.20;99.90
35633;DHT22;21754;48.216;-1.628;2022-12-18T00:29:39;1.50;99.90
35633;DHT22;21754;48.216;-1.628;2022-12-18T00:32:04;1.30;99.90
35633;DHT22;21754;48.216;-1.628;2022-12-18T00:34:30;1.40;99.90
35633;DHT22;21754;48.216;-1.628;2022-12-18T00:36:56;1.60;99.90
35633;DHT22;21754;48.216;-1.628;2022-12-18T00:39:21;1.60;99.90
35633;DHT22;21754;48.216;-1.628;2022-12-18T00:41:47;1.60;99.90
35633;DHT22;21754;48.216;-1.628;2022-12-18T00:44:31;1.50;99.90
35633;DHT22;21754;48.216;-1.628;2022-12-18T00:46:57;1.50;99.90
35633;DHT22;21754;48.216;-1.628;2022-12-18T00:49:22;1.80;99.90
35633;DHT22;21754;48.216;-1.628;2022-12-18T00:51:48;1.50;99.90
35633;DHT22;21754;48.216;-1.628;2022-12-18T00:54:14;1.40;99.90
35633;DHT22;21754;48.216;-1.628;2022-12-18T00:56:40;1.50;99.90
35633;DHT22;21754;48.216;-1.628;2022-12-18T00:59:06;1.60;99.90
35633;DHT22;21754;48.216;-1.628;2022-12-18T01:01:32;1.90;99.90
35633;DHT22;21754;48.216;-1.628;2022-12-18T01:03:59;1.30;99.90
35633;DHT22;21754;48.216;-1.628;2022-12-18T01:06:24;1.30;99.90
35633;DHT22;21754;48.216;-1.628;2022-12-18T01:08:50;1.20;99.90
35633;DHT22;21754;48.216;-1.628;2022-12-18T01:11:18;1.30;99.90
35633;DHT22;21754;48.216;-1.628;2022-12-18T01:13:44;1.20;99.90
35633;DHT22;21754;48.216;-1.628;2022-12-18T01:16:14;1.20;99.90
35633;DHT22;21754;48.216;-1.628;2022-12-18T01:18:40;1.30;99.90
35633;DHT22;21754;48.216;-1.628;2022-12-18T01:21:11;1.40;99.90
35633;DHT22;21754;48.216;-1.628;2022-12-18T01:23:37;1.10;99.90
35633;DHT22;21754;48.216;-1.628;2022-12-18T01:26:12;1.10;99.90
35633;DHT22;21754;48.216;-1.628;2022-12-18T01:28:39;1.40;99.90
35633;DHT22;21754;48.216;-1.628;2022-12-18T09:03:27;1.00;99.90
35633;DHT22;21754;48.216;-1.628;2022-12-18T09:05:53;4.70;99.90
35633;DHT22;21754;48.216;-1.628;2022-12-18T09:08:18;4.60;99.90
35633;DHT22;21754;48.216;-1.628;2022-12-18T09:10:45;4.70;99.90
35633;DHT22;21754;48.216;-1.628;2022-12-18T09:13:12;5.00;99.90
35633;DHT22;21754;48.216;-1.628;2022-12-18T09:15:56;4.70;99.90
35633;DHT22;21754;48.216;-1.628;2022-12-18T09:18:23;4.70;99.90
35633;DHT22;21754;48.216;-1.628;2022-12-18T09:20:49;4.70;99.90
35633;DHT22;21754;48.216;-1.628;2022-12-18T09:23:17;5.10;99.90
35633;DHT22;21754;48.216;-1.628;2022-12-18T09:25:42;4.70;99.90
35633;DHT22;21754;48.216;-1.628;2022-12-18T09:28:16;4.70;99.90
35633;DHT22;21754;48.216;-1.628;2022-12-18T09:30:44;4.90;99.90
35633;DHT22;21754;48.216;-1.628;2022-12-18T09:33:11;4.90;99.90
35633;DHT22;21754;48.216;-1.628;2022-12-18T09:35:37;5.10;99.90
35633;DHT22;21754;48.216;-1.628;2022-12-18T09:38:04;5.10;99.90
35633;DHT22;21754;48.216;-1.628;2022-12-18T09:40:35;5.10;99.90
35633;DHT22;21754;48.216;-1.628;2022-12-18T09:43:04;5.00;99.90
35633;DHT22;21754;48.216;-1.628;2022-12-18T09:45:40;5.10;99.90
35633;DHT22;21754;48.216;-1.628;2022-12-18T09:48:14;5.30;99.90
35633;DHT22;21754;48.216;-1.628;2022-12-18T09:50:41;5.20;99.90
35633;DHT22;21754;48.216;-1.628;2022-12-18T09:53:12;5.20;99.90
35633;DHT22;21754;48.216;-1.628;2022-12-18T09:55:43;5.30;99.90
35633;DHT22;21754;48.216;-1.628;2022-12-18T09:58:15;5.00;99.90
35633;DHT22;21754;48.216;-1.628;2022-12-18T10:00:42;5.10;99.90
35633;DHT22;21754;48.216;-1.628;2022-12-18T10:03:13;5.00;99.90
35633;DHT22;21754;48.216;-1.628;2022-12-18T10:11:43;4.90;99.90
35633;DHT22;21754;48.216;-1.628;2022-12-18T10:14:15;4.70;99.90
35633;DHT22;21754;48.216;-1.628;2022-12-18T10:19:58;4.50;99.90
35633;DHT22;21754;48.216;-1.628;2022-12-18T10:25:19;4.60;99.90
35633;DHT22;21754;48.216;-1.628;2022-12-18T10:27:46;4.60;99.90
35633;DHT22;21754;48.216;-1.628;2022-12-18T10:30:14;4.70;99.90
35633;DHT22;21754;48.216;-1.628;2022-12-18T10:32:40;4.80;99.90
35633;DHT22;21754;48.216;-1.628;2022-12-18T10:35:28;4.90;99.90
35633;DHT22;21754;48.216;-1.628;2022-12-18T10:40:25;4.90;99.90
35633;DHT22;21754;48.216;-1.628;2022-12-18T10:43:09;4.70;99.90
35633;DHT22;21754;48.216;-1.628;2022-12-18T10:45:36;4.80;99.90
35633;DHT22;21754;48.216;-1.628;2022-12-18T10:48:01;4.60;99.90
35633;DHT22;21754;48.216;-1.628;2022-12-18T10:50:31;4.50;99.90
35633;DHT22;21754;48.216;-1.628;2022-12-18T10:52:59;4.70;99.90
35633;DHT22;21754;48.216;-1.628;2022-12-18T10:55:39;4.80;99.90
35633;DHT22;21754;48.216;-1.628;2022-12-18T11:08:30;5.20;99.90
35633;DHT22;21754;48.216;-1.628;2022-12-18T11:10:55;5.40;99.90
35633;DHT22;21754;48.216;-1.628;2022-12-18T11:13:22;5.40;99.90
35633;DHT22;21754;48.216;-1.628;2022-12-18T11:15:49;5.70;99.90
35633;DHT22;21754;48.216;-1.628;2022-12-18T11:18:31;5.30;99.90
35633;DHT22;21754;48.216;-1.628;2022-12-18T11:21:12;5.20;99.90
35633;DHT22;21754;48.216;-1.628;2022-12-18T11:23:47;5.30;99.90
35633;DHT22;21754;48.216;-1.628;2022-12-18T11:26:14;5.50;99.90
35633;DHT22;21754;48.216;-1.628;2022-12-18T11:28:41;5.70;99.90
35633;DHT22;21754;48.216;-1.628;2022-12-18T11:31:22;5.80;99.90
35633;DHT22;21754;48.216;-1.628;2022-12-18T11:36:21;5.50;99.90
35633;DHT22;21754;48.216;-1.628;2022-12-18T11:38:48;5.30;99.90
35633;DHT22;21754;48.216;-1.628;2022-12-18T11:44:41;5.30;99.90
35633;DHT22;21754;48.216;-1.628;2022-12-18T11:47:28;5.20;99.90
35633;DHT22;21754;48.216;-1.628;2022-12-18T11:49:59;5.10;99.90
35633;DHT22;21754;48.216;-1.628;2022-12-18T11:52:38;5.20;99.90
35633;DHT22;21754;48.216;-1.628;2022-12-18T12:00:43;4.90;99.90
35633;DHT22;21754;48.216;-1.628;2022-12-18T12:06:58;4.70;99.90
35633;DHT22;21754;48.216;-1.628;2022-12-18T12:17:49;5.20;99.90
35633;DHT22;21754;48.216;-1.628;2022-12-18T12:20:23;5.20;99.90
35633;DHT22;21754;48.216;-1.628;2022-12-18T12:25:36;5.30;99.90
35633;DHT22;21754;48.216;-1.628;2022-12-18T12:33:44;5.30;99.90
35633;DHT22;21754;48.216;-1.628;2022-12-18T12:39:26;5.60;99.90
35633;DHT22;21754;48.216;-1.628;2022-12-18T12:41:53;5.80;99.90
35633;DHT22;21754;48.216;-1.628;2022-12-18T12:44:50;5.70;99.90
35633;DHT22;21754;48.216;-1.628;2022-12-18T12:47:33;5.60;99.90
35633;DHT22;21754;48.216;-1.628;2022-12-18T12:50:03;5.70;99.90
35633;DHT22;21754;48.216;-1.628;2022-12-18T12:52:33;5.80;99.90
35633;DHT22;21754;48.216;-1.628;2022-12-18T12:55:02;5.80;99.90
35633;DHT22;21754;48.216;-1.628;2022-12-18T12:57:34;5.80;99.90
35633;DHT22;21754;48.216;-1.628;2022-12-18T13:07:59;6.10;99.90
35633;DHT22;21754;48.216;-1.628;2022-12-18T13:13:10;6.30;99.90
35633;DHT22;21754;48.216;-1.628;2022-12-18T13:15:46;6.40;99.90
35633;DHT22;21754;48.216;-1.628;2022-12-18T13:18:22;6.20;99.90
35633;DHT22;21754;48.216;-1.628;2022-12-18T13:21:03;6.10;99.90
35633;DHT22;21754;48.216;-1.628;2022-12-18T13:23:36;6.30;99.90
35633;DHT22;21754;48.216;-1.628;2022-12-18T13:34:28;6.90;99.90
35633;DHT22;21754;48.216;-1.628;2022-12-18T13:37:38;7.00;99.90
35633;DHT22;21754;48.216;-1.628;2022-12-18T13:39:43;7.00;99.90
35633;DHT22;21754;48.216;-1.628;2022-12-18T13:44:39;6.90;99.90
35633;DHT22;21754;48.216;-1.628;2022-12-18T13:47:36;6.90;99.90
35633;DHT22;21754;48.216;-1.628;2022-12-18T13:50:25;6.90;99.90
35633;DHT22;21754;48.216;-1.628;2022-12-18T13:52:52;6.90;99.90
35633;DHT22;21754;48.216;-1.628;2022-12-18T13:55:20;7.10;99.90
35633;DHT22;21754;48.216;-1.628;2022-12-18T13:57:47;6.90;99.90
35633;DHT22;21754;48.216;-1.628;2022-12-18T14:02:49;6.80;99.90
35633;DHT22;21754;48.216;-1.628;2022-12-18T14:05:26;6.90;99.90
35633;DHT22;21754;48.216;-1.628;2022-12-18T14:07:53;6.70;99.90
35633;DHT22;21754;48.216;-1.628;2022-12-18T14:10:21;6.50;99.90
35633;DHT22;21754;48.216;-1.628;2022-12-18T14:12:48;6.80;99.90
35633;DHT22;21754;48.216;-1.628;2022-12-18T14:20:23;6.40;99.90
35633;DHT22;21754;48.216;-1.628;2022-12-18T14:22:49;6.50;99.90
35633;DHT22;21754;48.216;-1.628;2022-12-18T14:25:22;6.40;99.90
35633;DHT22;21754;48.216;-1.628;2022-12-18T14:30:35;6.60;99.90
35633;DHT22;21754;48.216;-1.628;2022-12-18T14:33:08;6.70;99.90
35633;DHT22;21754;48.216;-1.628;2022-12-18T14:35:36;6.80;99.90
35633;DHT22;21754;48.216;-1.628;2022-12-18T14:38:22;7.20;99.90
35633;DHT22;21754;48.216;-1.628;2022-12-18T14:41:15;7.00;99.90
35633;DHT22;21754;48.216;-1.628;2022-12-18T14:43:47;7.10;99.90
35633;DHT22;21754;48.216;-1.628;2022-12-18T14:48:59;7.30;99.90
35633;DHT22;21754;48.216;-1.628;2022-12-18T14:51:27;7.40;99.90
35633;DHT22;21754;48.216;-1.628;2022-12-18T14:53:59;7.40;99.90
35633;DHT22;21754;48.216;-1.628;2022-12-18T14:56:33;7.40;99.90
35633;DHT22;21754;48.216;-1.628;2022-12-18T15:04:40;7.60;99.90
35633;DHT22;21754;48.216;-1.628;2022-12-18T15:07:18;7.70;99.90
35633;DHT22;21754;48.216;-1.628;2022-12-18T15:10:07;7.70;99.90
35633;DHT22;21754;48.216;-1.628;2022-12-18T15:18:05;7.70;99.90
35633;DHT22;21754;48.216;-1.628;2022-12-18T15:20:58;7.70;99.90
35633;DHT22;21754;48.216;-1.628;2022-12-18T15:23:46;7.70;99.90
35633;DHT22;21754;48.216;-1.628;2022-12-18T15:26:15;7.90;99.90
35633;DHT22;21754;48.216;-1.628;2022-12-18T15:28:55;7.90;99.90
35633;DHT22;21754;48.216;-1.628;2022-12-18T15:31:24;8.00;99.90
35633;DHT22;21754;48.216;-1.628;2022-12-18T15:36:21;8.20;99.90
35633;DHT22;21754;48.216;-1.628;2022-12-18T15:38:48;8.20;99.90
35633;DHT22;21754;48.216;-1.628;2022-12-18T15:41:19;8.20;99.90
35633;DHT22;21754;48.216;-1.628;2022-12-18T15:43:47;8.30;99.90
35633;DHT22;21754;48.216;-1.628;2022-12-18T15:48:41;8.30;99.90
35633;DHT22;21754;48.216;-1.628;2022-12-18T15:53:46;8.40;99.90
35633;DHT22;21754;48.216;-1.628;2022-12-18T15:56:14;8.70;99.90
35633;DHT22;21754;48.216;-1.628;2022-12-18T15:58:59;8.40;99.90
35633;DHT22;21754;48.216;-1.628;2022-12-18T16:01:30;8.40;99.90
35633;DHT22;21754;48.216;-1.628;2022-12-18T16:03:56;8.30;99.90
35633;DHT22;21754;48.216;-1.628;2022-12-18T16:06:23;8.40;99.90
35633;DHT22;21754;48.216;-1.628;2022-12-18T16:08:49;8.50;99.90
35633;DHT22;21754;48.216;-1.628;2022-12-18T16:11:28;8.60;99.90
35633;DHT22;21754;48.216;-1.628;2022-12-18T16:16:57;8.50;99.90
35633;DHT22;21754;48.216;-1.628;2022-12-18T16:19:23;8.60;99.90
35633;DHT22;21754;48.216;-1.628;2022-12-18T16:21:51;8.60;99.90
35633;DHT22;21754;48.216;-1.628;2022-12-18T16:24:19;8.60;99.90
35633;DHT22;21754;48.216;-1.628;2022-12-18T16:26:47;8.60;99.90
35633;DHT22;21754;48.216;-1.628;2022-12-18T16:29:14;8.60;99.90
35633;DHT22;21754;48.216;-1.628;2022-12-18T16:31:40;8.60;99.90
35633;DHT22;21754;48.216;-1.628;2022-12-18T16:34:25;8.70;99.90
35633;DHT22;21754;48.216;-1.628;2022-12-18T16:36:57;8.90;99.90
35633;DHT22;21754;48.216;-1.628;2022-12-18T16:39:24;8.90;99.90
35633;DHT22;21754;48.216;-1.628;2022-12-18T16:41:50;9.00;99.90
35633;DHT22;21754;48.216;-1.628;2022-12-18T16:44:15;9.00;99.90
35633;DHT22;21754;48.216;-1.628;2022-12-18T16:46:42;9.10;99.90
35633;DHT22;21754;48.216;-1.628;2022-12-18T16:49:14;9.10;99.90
35633;DHT22;21754;48.216;-1.628;2022-12-18T16:51:41;9.10;99.90
35633;DHT22;21754;48.216;-1.628;2022-12-18T16:54:07;9.10;99.90
35633;DHT22;21754;48.216;-1.628;2022-12-18T16:56:33;9.10;99.90
35633;DHT22;21754;48.216;-1.628;2022-12-18T16:59:00;9.10;99.90
35633;DHT22;21754;48.216;-1.628;2022-12-18T17:01:28;9.20;99.90
35633;DHT22;21754;48.216;-1.628;2022-12-18T17:03:59;9.30;99.90
35633;DHT22;21754;48.216;-1.628;2022-12-18T17:48:05;9.40;99.90
35633;DHT22;21754;48.216;-1.628;2022-12-18T17:50:34;9.90;99.90
35633;DHT22;21754;48.216;-1.628;2022-12-18T17:53:00;9.90;99.90
35633;DHT22;21754;48.216;-1.628;2022-12-18T17:55:27;9.90;99.90
35633;DHT22;21754;48.216;-1.628;2022-12-18T17:57:53;9.90;99.90
35633;DHT22;21754;48.216;-1.628;2022-12-18T18:00:19;9.80;99.90
35633;DHT22;21754;48.216;-1.628;2022-12-18T18:02:45;9.90;99.90
35633;DHT22;21754;48.216;-1.628;2022-12-18T18:05:11;10.00;99.90
35633;DHT22;21754;48.216;-1.628;2022-12-18T18:07:37;10.00;99.90
35633;DHT22;21754;48.216;-1.628;2022-12-18T18:10:05;10.10;99.90
35633;DHT22;21754;48.216;-1.628;2022-12-18T18:12:30;10.20;99.90
35633;DHT22;21754;48.216;-1.628;2022-12-18T18:15:15;10.20;99.90
35633;DHT22;21754;48.216;-1.628;2022-12-18T18:17:40;10.20;99.90
35633;DHT22;21754;48.216;-1.628;2022-12-18T18:20:06;10.20;99.90
35633;DHT22;21754;48.216;-1.628;2022-12-18T18:22:33;10.40;99.90
35633;DHT22;21754;48.216;-1.628;2022-12-18T18:24:58;10.10;99.90
35633;DHT22;21754;48.216;-1.628;2022-12-18T18:27:24;10.20;99.90
35633;DHT22;21754;48.216;-1.628;2022-12-18T18:29:50;10.20;99.90
35633;DHT22;21754;48.216;-1.628;2022-12-18T18:32:16;10.30;99.90
35633;DHT22;21754;48.216;-1.628;2022-12-18T18:34:42;10.20;99.90
35633;DHT22;21754;48.216;-1.628;2022-12-18T18:37:08;10.30;99.90
35633;DHT22;21754;48.216;-1.628;2022-12-18T18:42:09;10.40;99.90
35633;DHT22;21754;48.216;-1.628;2022-12-18T18:44:35;10.50;99.90
35633;DHT22;21754;48.216;-1.628;2022-12-18T18:47:01;10.50;99.90
35633;DHT22;21754;48.216;-1.628;2022-12-18T18:49:27;10.40;99.90
35633;DHT22;21754;48.216;-1.628;2022-12-18T18:51:53;10.50;99.90
35633;DHT22;21754;48.216;-1.628;2022-12-18T18:54:20;10.50;99.90
35633;DHT22;21754;48.216;-1.628;2022-12-18T18:56:47;10.60;99.90
35633;DHT22;21754;48.216;-1.628;2022-12-18T18:59:13;10.50;99.90
35633;DHT22;21754;48.216;-1.628;2022-12-18T19:01:38;10.50;99.90
35633;DHT22;21754;48.216;-1.628;2022-12-18T19:04:04;10.60;99.90
35633;DHT22;21754;48.216;-1.628;2022-12-18T19:06:30;10.60;99.90
35633;DHT22;21754;48.216;-1.628;2022-12-18T19:08:57;10.50;99.90
35633;DHT22;21754;48.216;-1.628;2022-12-18T19:11:24;10.40;99.90
35633;DHT22;21754;48.216;-1.628;2022-12-18T19:14:11;10.50;99.90
35633;DHT22;21754;48.216;-1.628;2022-12-18T19:16:37;10.50;99.90
35633;DHT22;21754;48.216;-1.628;2022-12-18T19:19:03;10.70;99.90
35633;DHT22;21754;48.216;-1.628;2022-12-18T19:21:33;10.70;99.90
35633;DHT22;21754;48.216;-1.628;2022-12-18T19:23:59;10.70;99.90
35633;DHT22;21754;48.216;-1.628;2022-12-18T19:26:28;10.90;99.90
35633;DHT22;21754;48.216;-1.628;2022-12-18T19:28:53;11.00;99.90
35633;DHT22;21754;48.216;-1.628;2022-12-18T19:31:24;11.00;99.90
35633;DHT22;21754;48.216;-1.628;2022-12-18T19:33:50;11.10;99.90
35633;DHT22;21754;48.216;-1.628;2022-12-18T19:36:23;11.10;99.90
35633;DHT22;21754;48.216;-1.628;2022-12-18T19:38:50;11.10;99.90
35633;DHT22;21754;48.216;-1.628;2022-12-18T19:41:17;11.10;99.90
35633;DHT22;21754;48.216;-1.628;2022-12-18T19:43:43;11.20;99.90
35633;DHT22;21754;48.216;-1.628;2022-12-18T19:46:14;11.10;99.90
35633;DHT22;21754;48.216;-1.628;2022-12-18T19:53:46;11.30;99.90
35633;DHT22;21754;48.216;-1.628;2022-12-18T19:56:14;11.20;99.90
35633;DHT22;21754;48.216;-1.628;2022-12-18T19:58:40;11.30;99.90
35633;DHT22;21754;48.216;-1.628;2022-12-18T20:01:06;11.20;99.90
35633;DHT22;21754;48.216;-1.628;2022-12-18T20:03:32;11.30;99.90
35633;DHT22;21754;48.216;-1.628;2022-12-18T20:06:24;11.40;99.90
35633;DHT22;21754;48.216;-1.628;2022-12-18T20:08:51;11.50;99.90
35633;DHT22;21754;48.216;-1.628;2022-12-18T20:11:17;11.50;99.90
35633;DHT22;21754;48.216;-1.628;2022-12-18T20:13:43;11.70;99.90
35633;DHT22;21754;48.216;-1.628;2022-12-18T20:16:09;11.50;99.90
35633;DHT22;21754;48.216;-1.628;2022-12-18T20:18:35;11.60;99.90
35633;DHT22;21754;48.216;-1.628;2022-12-18T20:21:01;11.70;99.90
35633;DHT22;21754;48.216;-1.628;2022-12-18T20:23:27;11.70;99.90
35633;DHT22;21754;48.216;-1.628;2022-12-18T20:25:53;11.60;99.90
35633;DHT22;21754;48.216;-1.628;2022-12-18T20:28:19;11.50;99.90
35633;DHT22;21754;48.216;-1.628;2022-12-18T20:30:46;11.60;99.90
35633;DHT22;21754;48.216;-1.628;2022-12-18T20:33:11;11.70;99.90
35633;DHT22;21754;48.216;-1.628;2022-12-18T20:35:37;11.70;99.90
35633;DHT22;21754;48.216;-1.628;2022-12-18T20:38:02;11.70;99.90
35633;DHT22;21754;48.216;-1.628;2022-12-18T20:40:28;11.80;99.90
35633;DHT22;21754;48.216;-1.628;2022-12-18T20:42:54;11.90;99.90
35633;DHT22;21754;48.216;-1.628;2022-12-18T20:45:19;11.90;99.90
35633;DHT22;21754;48.216;-1.628;2022-12-18T20:47:45;12.00;99.90
35633;DHT22;21754;48.216;-1.628;2022-12-18T20:50:11;12.00;99.90
35633;DHT22;21754;48.216;-1.628;2022-12-18T20:52:36;12.10;99.90
35633;DHT22;21754;48.216;-1.628;2022-12-18T20:55:04;12.20;99.90
35633;DHT22;21754;48.216;-1.628;2022-12-18T20:57:30;12.10;99.90
35633;DHT22;21754;48.216;-1.628;2022-12-18T20:59:56;12.10;99.90
35633;DHT22;21754;48.216;-1.628;2022-12-18T21:02:22;12.10;99.90
35633;DHT22;21754;48.216;-1.628;2022-12-18T21:04:47;12.10;99.90
35633;DHT22;21754;48.216;-1.628;2022-12-18T21:07:13;12.00;99.90
35633;DHT22;21754;48.216;-1.628;2022-12-18T21:09:39;12.00;99.90
35633;DHT22;21754;48.216;-1.628;2022-12-18T21:12:12;12.00;99.90
35633;DHT22;21754;48.216;-1.628;2022-12-18T21:15:03;11.90;99.90
35633;DHT22;21754;48.216;-1.628;2022-12-18T21:17:29;12.30;99.90
35633;DHT22;21754;48.216;-1.628;2022-12-18T21:19:58;12.10;99.90
35633;DHT22;21754;48.216;-1.628;2022-12-18T21:22:23;12.20;99.90
35633;DHT22;21754;48.216;-1.628;2022-12-18T21:24:50;12.10;99.90
35633;DHT22;21754;48.216;-1.628;2022-12-18T21:27:15;12.10;99.90
35633;DHT22;21754;48.216;-1.628;2022-12-18T21:29:41;12.20;99.90
35633;DHT22;21754;48.216;-1.628;2022-12-18T21:32:08;12.20;99.90
35633;DHT22;21754;48.216;-1.628;2022-12-18T21:34:34;12.20;99.90
35633;DHT22;21754;48.216;-1.628;2022-12-18T21:37:01;12.20;99.90
35633;DHT22;21754;48.216;-1.628;2022-12-18T21:39:29;12.30;99.90
35633;DHT22;21754;48.216;-1.628;2022-12-18T21:41:56;12.30;99.90
35633;DHT22;21754;48.216;-1.628;2022-12-18T21:44:40;12.30;99.90
35633;DHT22;21754;48.216;-1.628;2022-12-18T21:47:06;12.30;99.90
35633;DHT22;21754;48.216;-1.628;2022-12-18T21:49:32;12.20;99.90
35633;DHT22;21754;48.216;-1.628;2022-12-18T21:51:59;12.20;99.90
35633;DHT22;21754;48.216;-1.628;2022-12-18T21:54:26;12.20;99.90
35633;DHT22;21754;48.216;-1.628;2022-12-18T21:56:53;12.20;99.90
35633;DHT22;21754;48.216;-1.628;2022-12-18T21:59:31;12.20;99.90
35633;DHT22;21754;48.216;-1.628;2022-12-18T22:02:00;12.20;99.90
35633;DHT22;21754;48.216;-1.628;2022-12-18T22:04:27;12.10;99.90
35633;DHT22;21754;48.216;-1.628;2022-12-18T22:06:53;12.20;99.90
35633;DHT22;21754;48.216;-1.628;2022-12-18T22:09:20;12.30;99.90
35633;DHT22;21754;48.216;-1.628;2022-12-18T22:11:47;12.20;99.90
35633;DHT22;21754;48.216;-1.628;2022-12-18T22:14:14;12.30;99.90
35633;DHT22;21754;48.216;-1.628;2022-12-18T22:16:40;12.30;99.90
35633;DHT22;21754;48.216;-1.628;2022-12-18T22:19:07;12.20;99.90
35633;DHT22;21754;48.216;-1.628;2022-12-18T22:21:35;12.30;99.90
35633;DHT22;21754;48.216;-1.628;2022-12-18T22:24:13;12.10;99.90
35633;DHT22;21754;48.216;-1.628;2022-12-18T22:26:39;12.20;99.90
35633;DHT22;21754;48.216;-1.628;2022-12-18T22:29:06;12.30;99.90
35633;DHT22;21754;48.216;-1.628;2022-12-18T22:31:50;12.40;99.90
35633;DHT22;21754;48.216;-1.628;2022-12-18T22:34:16;12.40;99.90
35633;DHT22;21754;48.216;-1.628;2022-12-18T22:36:45;12.40;99.90
35633;DHT22;21754;48.216;-1.628;2022-12-18T22:39:18;12.40;99.90
35633;DHT22;21754;48.216;-1.628;2022-12-18T22:41:44;12.20;99.90
35633;DHT22;21754;48.216;-1.628;2022-12-18T22:44:10;12.10;99.90
35633;DHT22;21754;48.216;-1.628;2022-12-18T22:46:42;12.10;99.90
35633;DHT22;21754;48.216;-1.628;2022-12-18T22:49:13;12.00;99.90
35633;DHT22;21754;48.216;-1.628;2022-12-18T22:51:39;12.10;99.90
35633;DHT22;21754;48.216;-1.628;2022-12-18T22:54:05;12.10;99.90
35633;DHT22;21754;48.216;-1.628;2022-12-18T22:56:30;12.10;99.90
35633;DHT22;21754;48.216;-1.628;2022-12-18T22:58:56;12.10;99.90
35633;DHT22;21754;48.216;-1.628;2022-12-18T23:01:26;12.20;99.90
35633;DHT22;21754;48.216;-1.628;2022-12-18T23:06:20;12.40;99.90
35633;DHT22;21754;48.216;-1.628;2022-12-18T23:08:46;12.50;99.90
35633;DHT22;21754;48.216;-1.628;2022-12-18T23:11:14;12.40;99.90
35633;DHT22;21754;48.216;-1.628;2022-12-18T23:13:40;12.30;99.90
35633;DHT22;21754;48.216;-1.628;2022-12-18T23:16:08;12.40;99.90
35633;DHT22;21754;48.216;-1.628;2022-12-18T23:18:36;12.50;99.90
35633;DHT22;21754;48.216;-1.628;2022-12-18T23:21:07;12.50;99.90
35633;DHT22;21754;48.216;-1.628;2022-12-18T23:53:03;12.50;99.90
35633;DHT22;21754;48.216;-1.628;2022-12-18T23:55:29;12.80;99.90
35633;DHT22;21754;48.216;-1.628;2022-12-18T23:57:55;12.80;99.90
